sensor_id;sensor_type;location;lat;lon;timestamp;temperature;humidity
5940;DHT22;2995;-31.998;115.906;2023-11-21T00:01:20;26.30;99.90
5940;DHT22;2995;-31.998;115.906;2023-11-21T00:03:51;26.40;99.90
5940;DHT22;2995;-31.998;115.906;2023-11-21T00:06:23;26.20;99.90
5940;DHT22;2995;-31.998;115.906;2023-11-21T00:08:56;26.50;99.90
5940;DHT22;2995;-31.998;115.906;2023-11-21T00:11:27;26.90;99.90
5940;DHT22;2995;-31.998;115.906;2023-11-21T00:13:58;27.10;99.90
5940;DHT22;2995;-31.998;115.906;2023-11-21T00:16:30;27.30;99.90
5940;DHT22;2995;-31.998;115.906;2023-11-21T00:19:01;27.30;99.90
5940;DHT22;2995;-31.998;115.906;2023-11-21T00:21:32;27.30;99.90
5940;DHT22;2995;-31.998;115.906;2023-11-21T00:24:06;27.50;99.90
5940;DHT22;2995;-31.998;115.906;2023-11-21T00:26:38;27.70;99.90
5940;DHT22;2995;-31.998;115.906;2023-11-21T00:29:09;27.80;99.90
5940;DHT22;2995;-31.998;115.906;2023-11-21T00:31:40;27.70;99.90
5940;DHT22;2995;-31.998;115.906;2023-11-21T00:34:12;28.10;99.90
5940;DHT22;2995;-31.998;115.906;2023-11-21T00:36:43;27.90;99.90
5940;DHT22;2995;-31.998;115.906;2023-11-21T00:39:17;27.80;99.90
5940;DHT22;2995;-31.998;115.906;2023-11-21T00:41:48;27.90;99.90
5940;DHT22;2995;-31.998;115.906;2023-11-21T00:44:19;28.10;99.90
5940;DHT22;2995;-31.998;115.906;2023-11-21T00:46:50;28.10;99.90
5940;DHT22;2995;-31.998;115.906;2023-11-21T00:49:22;28.00;99.90
5940;DHT22;2995;-31.998;115.906;2023-11-21T00:51:53;28.10;99.90
5940;DHT22;2995;-31.998;115.906;2023-11-21T00:54:28;28.10;99.90
5940;DHT22;2995;-31.998;115.906;2023-11-21T00:56:59;28.20;99.90
5940;DHT22;2995;-31.998;115.906;2023-11-21T00:59:31;28.20;99.90
5940;DHT22;2995;-31.998;115.906;2023-11-21T01:02:02;28.50;99.90
5940;DHT22;2995;-31.998;115.906;2023-11-21T01:04:33;28.60;99.90
5940;DHT22;2995;-31.998;115.906;2023-11-21T01:07:05;28.90;99.90
5940;DHT22;2995;-31.998;115.906;2023-11-21T01:09:39;29.00;99.90
5940;DHT22;2995;-31.998;115.906;2023-11-21T01:12:12;28.90;99.90
5940;DHT22;2995;-31.998;115.906;2023-11-21T01:14:43;28.80;99.90
5940;DHT22;2995;-31.998;115.906;2023-11-21T01:17:15;28.70;99.90
5940;DHT22;2995;-31.998;115.906;2023-11-21T01:19:46;28.40;99.90
5940;DHT22;2995;-31.998;115.906;2023-11-21T01:22:17;28.50;99.90
5940;DHT22;2995;-31.998;115.906;2023-11-21T01:24:55;28.40;99.90
5940;DHT22;2995;-31.998;115.906;2023-11-21T01:27:26;28.40;99.90
5940;DHT22;2995;-31.998;115.906;2023-11-21T01:29:58;28.30;99.90
5940;DHT22;2995;-31.998;115.906;2023-11-21T01:32:29;28.40;99.90
5940;DHT22;2995;-31.998;115.906;2023-11-21T01:35:01;28.40;99.90
5940;DHT22;2995;-31.998;115.906;2023-11-21T01:37:34;28.50;99.90
5940;DHT22;2995;-31.998;115.906;2023-11-21T01:40:08;28.50;99.90
5940;DHT22;2995;-31.998;115.906;2023-11-21T01:42:42;28.40;99.90
5940;DHT22;2995;-31.998;115.906;2023-11-21T01:45:15;28.40;99.90
5940;DHT22;2995;-31.998;115.906;2023-11-21T01:47:46;28.40;99.90
5940;DHT22;2995;-31.998;115.906;2023-11-21T01:50:18;28.40;99.90
5940;DHT22;2995;-31.998;115.906;2023-11-21T01:52:50;28.40;99.90
5940;DHT22;2995;-31.998;115.906;2023-11-21T01:55:24;28.40;99.90
5940;DHT22;2995;-31.998;115.906;2023-11-21T01:57:55;28.30;99.90
5940;DHT22;2995;-31.998;115.906;2023-11-21T02:00:27;28.30;99.90
5940;DHT22;2995;-31.998;115.906;2023-11-21T02:02:59;28.30;99.90
5940;DHT22;2995;-31.998;115.906;2023-11-21T02:05:30;28.70;99.90
5940;DHT22;2995;-31.998;115.906;2023-11-21T02:08:02;29.00;99.90
5940;DHT22;2995;-31.998;115.906;2023-11-21T02:10:35;29.20;99.90
5940;DHT22;2995;-31.998;115.906;2023-11-21T02:13:06;29.00;99.90
5940;DHT22;2995;-31.998;115.906;2023-11-21T02:15:39;29.10;99.90
5940;DHT22;2995;-31.998;115.906;2023-11-21T02:18:10;29.20;99.90
5940;DHT22;2995;-31.998;115.906;2023-11-21T02:20:41;29.10;99.90
5940;DHT22;2995;-31.998;115.906;2023-11-21T02:23:14;29.10;99.90
5940;DHT22;2995;-31.998;115.906;2023-11-21T02:25:46;29.40;99.90
5940;DHT22;2995;-31.998;115.906;2023-11-21T02:28:17;29.60;99.90
5940;DHT22;2995;-31.998;115.906;2023-11-21T02:30:53;29.60;99.90
5940;DHT22;2995;-31.998;115.906;2023-11-21T02:33:27;29.60;99.90
5940;DHT22;2995;-31.998;115.906;2023-11-21T02:35:58;29.70;99.90
5940;DHT22;2995;-31.998;115.906;2023-11-21T02:38:31;29.50;99.90
5940;DHT22;2995;-31.998;115.906;2023-11-21T02:41:02;29.70;99.90
5940;DHT22;2995;-31.998;115.906;2023-11-21T02:43:33;29.70;99.90
5940;DHT22;2995;-31.998;115.906;2023-11-21T02:46:06;29.70;99.90
5940;DHT22;2995;-31.998;115.906;2023-11-21T02:48:39;29.70;99.90
5940;DHT22;2995;-31.998;115.906;2023-11-21T02:51:10;29.90;99.90
5940;DHT22;2995;-31.998;115.906;2023-11-21T02:53:43;29.90;99.90
5940;DHT22;2995;-31.998;115.906;2023-11-21T02:56:14;30.00;99.90
5940;DHT22;2995;-31.998;115.906;2023-11-21T02:58:46;30.30;99.80
5940;DHT22;2995;-31.998;115.906;2023-11-21T03:01:17;30.20;99.70
5940;DHT22;2995;-31.998;115.906;2023-11-21T03:03:48;30.30;99.90
5940;DHT22;2995;-31.998;115.906;2023-11-21T03:06:20;30.40;99.80
5940;DHT22;2995;-31.998;115.906;2023-11-21T03:08:53;30.20;99.10
5940;DHT22;2995;-31.998;115.906;2023-11-21T03:11:24;30.30;99.30
5940;DHT22;2995;-31.998;115.906;2023-11-21T03:13:55;30.30;99.10
5940;DHT22;2995;-31.998;115.906;2023-11-21T03:16:27;30.30;99.30
5940;DHT22;2995;-31.998;115.906;2023-11-21T03:18:59;30.60;99.70
5940;DHT22;2995;-31.998;115.906;2023-11-21T03:21:31;30.80;98.90
5940;DHT22;2995;-31.998;115.906;2023-11-21T03:24:04;30.90;99.20
5940;DHT22;2995;-31.998;115.906;2023-11-21T03:26:36;31.20;98.70
5940;DHT22;2995;-31.998;115.906;2023-11-21T03:29:08;31.50;98.10
5940;DHT22;2995;-31.998;115.906;2023-11-21T03:31:39;31.60;97.50
5940;DHT22;2995;-31.998;115.906;2023-11-21T03:34:16;31.70;98.10
5940;DHT22;2995;-31.998;115.906;2023-11-21T03:36:47;31.50;98.00
5940;DHT22;2995;-31.998;115.906;2023-11-21T03:39:20;31.60;97.30
5940;DHT22;2995;-31.998;115.906;2023-11-21T03:41:53;31.70;97.10
5940;DHT22;2995;-31.998;115.906;2023-11-21T03:44:24;31.60;96.90
5940;DHT22;2995;-31.998;115.906;2023-11-21T03:46:56;31.50;96.90
5940;DHT22;2995;-31.998;115.906;2023-11-21T03:49:27;31.50;96.90
5940;DHT22;2995;-31.998;115.906;2023-11-21T03:51:59;31.70;96.80
5940;DHT22;2995;-31.998;115.906;2023-11-21T03:54:32;31.90;96.70
5940;DHT22;2995;-31.998;115.906;2023-11-21T03:57:04;32.10;96.70
5940;DHT22;2995;-31.998;115.906;2023-11-21T03:59:35;32.30;96.40
5940;DHT22;2995;-31.998;115.906;2023-11-21T04:02:07;32.40;95.80
5940;DHT22;2995;-31.998;115.906;2023-11-21T04:04:38;32.50;95.20
5940;DHT22;2995;-31.998;115.906;2023-11-21T04:07:10;32.80;94.40
5940;DHT22;2995;-31.998;115.906;2023-11-21T04:09:43;32.80;94.10
5940;DHT22;2995;-31.998;115.906;2023-11-21T04:12:14;32.50;93.90
5940;DHT22;2995;-31.998;115.906;2023-11-21T04:14:45;32.50;94.80
5940;DHT22;2995;-31.998;115.906;2023-11-21T04:17:20;32.90;94.90
5940;DHT22;2995;-31.998;115.906;2023-11-21T04:19:51;32.80;94.20
5940;DHT22;2995;-31.998;115.906;2023-11-21T04:22:22;32.70;94.20
5940;DHT22;2995;-31.998;115.906;2023-11-21T04:24:55;32.90;94.30
5940;DHT22;2995;-31.998;115.906;2023-11-21T04:27:26;33.00;93.70
5940;DHT22;2995;-31.998;115.906;2023-11-21T04:29:57;33.10;93.30
5940;DHT22;2995;-31.998;115.906;2023-11-21T04:32:29;32.80;93.20
5940;DHT22;2995;-31.998;115.906;2023-11-21T04:35:00;32.80;93.40
5940;DHT22;2995;-31.998;115.906;2023-11-21T04:37:32;32.80;93.40
5940;DHT22;2995;-31.998;115.906;2023-11-21T04:40:05;33.10;93.70
5940;DHT22;2995;-31.998;115.906;2023-11-21T04:42:37;33.40;93.40
5940;DHT22;2995;-31.998;115.906;2023-11-21T04:45:09;33.60;92.40
5940;DHT22;2995;-31.998;115.906;2023-11-21T04:47:40;33.60;92.90
5940;DHT22;2995;-31.998;115.906;2023-11-21T04:50:12;33.80;92.70
5940;DHT22;2995;-31.998;115.906;2023-11-21T04:52:44;33.90;92.60
5940;DHT22;2995;-31.998;115.906;2023-11-21T04:55:17;34.00;91.70
5940;DHT22;2995;-31.998;115.906;2023-11-21T04:57:48;34.10;91.80
5940;DHT22;2995;-31.998;115.906;2023-11-21T05:00:19;34.30;91.60
5940;DHT22;2995;-31.998;115.906;2023-11-21T05:02:51;34.30;91.30
5940;DHT22;2995;-31.998;115.906;2023-11-21T05:05:22;34.40;91.30
5940;DHT22;2995;-31.998;115.906;2023-11-21T05:07:53;34.30;90.70
5940;DHT22;2995;-31.998;115.906;2023-11-21T05:10:26;34.30;91.00
5940;DHT22;2995;-31.998;115.906;2023-11-21T05:12:58;34.40;91.00
5940;DHT22;2995;-31.998;115.906;2023-11-21T05:15:30;34.30;90.30
5940;DHT22;2995;-31.998;115.906;2023-11-21T05:18:01;34.50;90.40
5940;DHT22;2995;-31.998;115.906;2023-11-21T05:20:33;34.50;90.10
5940;DHT22;2995;-31.998;115.906;2023-11-21T05:23:06;34.40;90.20
5940;DHT22;2995;-31.998;115.906;2023-11-21T05:25:39;34.00;88.90
5940;DHT22;2995;-31.998;115.906;2023-11-21T05:28:11;33.80;90.00
5940;DHT22;2995;-31.998;115.906;2023-11-21T05:30:42;33.90;90.20
5940;DHT22;2995;-31.998;115.906;2023-11-21T05:33:14;34.10;90.30
5940;DHT22;2995;-31.998;115.906;2023-11-21T05:35:45;34.20;88.80
5940;DHT22;2995;-31.998;115.906;2023-11-21T05:38:17;34.30;90.00
5940;DHT22;2995;-31.998;115.906;2023-11-21T05:40:51;34.40;88.10
5940;DHT22;2995;-31.998;115.906;2023-11-21T05:43:22;34.40;88.70
5940;DHT22;2995;-31.998;115.906;2023-11-21T05:45:54;34.60;88.50
5940;DHT22;2995;-31.998;115.906;2023-11-21T05:48:25;34.80;88.70
5940;DHT22;2995;-31.998;115.906;2023-11-21T05:50:56;34.90;87.80
5940;DHT22;2995;-31.998;115.906;2023-11-21T05:53:27;34.90;87.90
5940;DHT22;2995;-31.998;115.906;2023-11-21T05:56:00;34.90;88.00
5940;DHT22;2995;-31.998;115.906;2023-11-21T05:58:32;35.00;87.80
5940;DHT22;2995;-31.998;115.906;2023-11-21T06:01:05;35.20;87.40
5940;DHT22;2995;-31.998;115.906;2023-11-21T06:03:37;35.30;86.90
5940;DHT22;2995;-31.998;115.906;2023-11-21T06:06:09;35.20;86.20
5940;DHT22;2995;-31.998;115.906;2023-11-21T06:08:40;35.30;85.50
5940;DHT22;2995;-31.998;115.906;2023-11-21T06:11:14;35.30;85.70
5940;DHT22;2995;-31.998;115.906;2023-11-21T06:13:45;35.30;84.80
5940;DHT22;2995;-31.998;115.906;2023-11-21T06:16:17;35.40;85.20
5940;DHT22;2995;-31.998;115.906;2023-11-21T06:18:49;35.50;84.60
5940;DHT22;2995;-31.998;115.906;2023-11-21T06:21:20;35.50;84.20
5940;DHT22;2995;-31.998;115.906;2023-11-21T06:23:51;35.50;83.60
5940;DHT22;2995;-31.998;115.906;2023-11-21T06:26:27;35.60;83.60
5940;DHT22;2995;-31.998;115.906;2023-11-21T06:28:59;35.80;84.20
5940;DHT22;2995;-31.998;115.906;2023-11-21T06:31:31;35.70;82.80
5940;DHT22;2995;-31.998;115.906;2023-11-21T06:34:02;35.80;82.30
5940;DHT22;2995;-31.998;115.906;2023-11-21T06:36:33;35.90;82.20
5940;DHT22;2995;-31.998;115.906;2023-11-21T06:39:04;35.90;81.80
5940;DHT22;2995;-31.998;115.906;2023-11-21T06:41:38;35.80;81.80
5940;DHT22;2995;-31.998;115.906;2023-11-21T06:44:10;36.00;81.60
5940;DHT22;2995;-31.998;115.906;2023-11-21T06:46:41;36.00;79.90
5940;DHT22;2995;-31.998;115.906;2023-11-21T06:49:12;36.10;79.80
5940;DHT22;2995;-31.998;115.906;2023-11-21T06:51:44;36.20;79.50
5940;DHT22;2995;-31.998;115.906;2023-11-21T06:54:15;36.20;78.80
5940;DHT22;2995;-31.998;115.906;2023-11-21T06:56:48;36.40;78.60
5940;DHT22;2995;-31.998;115.906;2023-11-21T06:59:21;36.30;77.30
5940;DHT22;2995;-31.998;115.906;2023-11-21T07:01:52;36.30;76.90
5940;DHT22;2995;-31.998;115.906;2023-11-21T07:04:24;36.30;76.30
5940;DHT22;2995;-31.998;115.906;2023-11-21T07:06:55;36.40;76.10
5940;DHT22;2995;-31.998;115.906;2023-11-21T07:09:27;36.30;75.80
5940;DHT22;2995;-31.998;115.906;2023-11-21T07:12:00;36.40;75.60
5940;DHT22;2995;-31.998;115.906;2023-11-21T07:14:31;36.40;75.60
5940;DHT22;2995;-31.998;115.906;2023-11-21T07:17:03;36.40;75.30
5940;DHT22;2995;-31.998;115.906;2023-11-21T07:19:34;36.40;74.80
5940;DHT22;2995;-31.998;115.906;2023-11-21T07:22:05;36.50;74.70
5940;DHT22;2995;-31.998;115.906;2023-11-21T07:24:37;36.50;73.90
5940;DHT22;2995;-31.998;115.906;2023-11-21T07:27:11;36.50;73.60
5940;DHT22;2995;-31.998;115.906;2023-11-21T07:29:42;36.40;73.40
5940;DHT22;2995;-31.998;115.906;2023-11-21T07:32:13;36.50;73.20
5940;DHT22;2995;-31.998;115.906;2023-11-21T07:34:45;36.30;73.20
5940;DHT22;2995;-31.998;115.906;2023-11-21T07:37:16;36.30;72.60
5940;DHT22;2995;-31.998;115.906;2023-11-21T07:39:47;36.30;73.60
5940;DHT22;2995;-31.998;115.906;2023-11-21T07:42:24;36.40;73.20
5940;DHT22;2995;-31.998;115.906;2023-11-21T07:44:56;36.60;73.70
5940;DHT22;2995;-31.998;115.906;2023-11-21T07:47:27;36.70;72.80
5940;DHT22;2995;-31.998;115.906;2023-11-21T07:49:58;36.70;72.00
5940;DHT22;2995;-31.998;115.906;2023-11-21T07:52:31;36.70;72.00
5940;DHT22;2995;-31.998;115.906;2023-11-21T07:55:02;36.70;71.30
5940;DHT22;2995;-31.998;115.906;2023-11-21T07:57:35;36.80;70.70
5940;DHT22;2995;-31.998;115.906;2023-11-21T08:00:07;36.70;70.20
5940;DHT22;2995;-31.998;115.906;2023-11-21T08:02:40;36.70;70.50
5940;DHT22;2995;-31.998;115.906;2023-11-21T08:05:14;36.80;69.70
5940;DHT22;2995;-31.998;115.906;2023-11-21T08:07:45;36.80;69.60
5940;DHT22;2995;-31.998;115.906;2023-11-21T08:10:16;36.70;69.20
5940;DHT22;2995;-31.998;115.906;2023-11-21T08:12:51;36.80;69.00
5940;DHT22;2995;-31.998;115.906;2023-11-21T08:15:22;36.70;69.30
5940;DHT22;2995;-31.998;115.906;2023-11-21T08:17:53;36.70;69.20
5940;DHT22;2995;-31.998;115.906;2023-11-21T08:20:25;36.80;69.60
5940;DHT22;2995;-31.998;115.906;2023-11-21T08:22:56;36.90;68.80
5940;DHT22;2995;-31.998;115.906;2023-11-21T08:25:27;37.00;68.70
5940;DHT22;2995;-31.998;115.906;2023-11-21T08:28:00;36.90;67.70
5940;DHT22;2995;-31.998;115.906;2023-11-21T08:30:32;36.90;67.50
5940;DHT22;2995;-31.998;115.906;2023-11-21T08:33:03;36.80;68.00
5940;DHT22;2995;-31.998;115.906;2023-11-21T08:35:34;36.80;68.60
5940;DHT22;2995;-31.998;115.906;2023-11-21T08:38:06;36.90;68.00
5940;DHT22;2995;-31.998;115.906;2023-11-21T08:40:38;36.90;67.20
5940;DHT22;2995;-31.998;115.906;2023-11-21T08:43:11;36.90;66.40
5940;DHT22;2995;-31.998;115.906;2023-11-21T08:45:44;36.90;66.40
5940;DHT22;2995;-31.998;115.906;2023-11-21T08:48:15;36.90;66.40
5940;DHT22;2995;-31.998;115.906;2023-11-21T08:50:46;36.80;66.50
5940;DHT22;2995;-31.998;115.906;2023-11-21T08:53:19;36.80;66.10
5940;DHT22;2995;-31.998;115.906;2023-11-21T08:55:50;36.80;65.70
5940;DHT22;2995;-31.998;115.906;2023-11-21T08:58:24;36.90;66.10
5940;DHT22;2995;-31.998;115.906;2023-11-21T09:00:55;36.80;66.00
5940;DHT22;2995;-31.998;115.906;2023-11-21T09:03:26;36.90;64.50
5940;DHT22;2995;-31.998;115.906;2023-11-21T09:05:57;36.90;65.60
5940;DHT22;2995;-31.998;115.906;2023-11-21T09:08:28;36.90;64.50
5940;DHT22;2995;-31.998;115.906;2023-11-21T09:11:00;36.70;63.90
5940;DHT22;2995;-31.998;115.906;2023-11-21T09:13:33;36.80;64.10
5940;DHT22;2995;-31.998;115.906;2023-11-21T09:16:05;36.80;65.10
5940;DHT22;2995;-31.998;115.906;2023-11-21T09:18:36;36.70;63.80
5940;DHT22;2995;-31.998;115.906;2023-11-21T09:21:07;36.70;63.90
5940;DHT22;2995;-31.998;115.906;2023-11-21T09:23:39;36.60;62.90
5940;DHT22;2995;-31.998;115.906;2023-11-21T09:26:10;36.70;63.10
5940;DHT22;2995;-31.998;115.906;2023-11-21T09:28:46;36.60;63.00
5940;DHT22;2995;-31.998;115.906;2023-11-21T09:31:17;36.50;62.80
5940;DHT22;2995;-31.998;115.906;2023-11-21T09:33:50;36.60;63.30
5940;DHT22;2995;-31.998;115.906;2023-11-21T09:36:21;36.60;62.80
5940;DHT22;2995;-31.998;115.906;2023-11-21T09:38:55;36.50;62.10
5940;DHT22;2995;-31.998;115.906;2023-11-21T09:41:37;36.50;62.50
5940;DHT22;2995;-31.998;115.906;2023-11-21T09:44:17;36.40;61.60
5940;DHT22;2995;-31.998;115.906;2023-11-21T09:46:50;36.40;61.80
5940;DHT22;2995;-31.998;115.906;2023-11-21T09:49:25;36.30;61.50
5940;DHT22;2995;-31.998;115.906;2023-11-21T09:51:57;36.30;61.30
5940;DHT22;2995;-31.998;115.906;2023-11-21T09:54:31;36.30;61.70
5940;DHT22;2995;-31.998;115.906;2023-11-21T09:57:03;36.30;60.90
5940;DHT22;2995;-31.998;115.906;2023-11-21T09:59:37;36.20;61.50
5940;DHT22;2995;-31.998;115.906;2023-11-21T10:02:09;36.10;61.10
5940;DHT22;2995;-31.998;115.906;2023-11-21T10:04:41;36.10;61.40
5940;DHT22;2995;-31.998;115.906;2023-11-21T10:07:13;36.10;61.60
5940;DHT22;2995;-31.998;115.906;2023-11-21T10:09:48;36.00;61.70
5940;DHT22;2995;-31.998;115.906;2023-11-21T10:12:21;35.90;61.60
5940;DHT22;2995;-31.998;115.906;2023-11-21T10:14:56;35.80;61.40
5940;DHT22;2995;-31.998;115.906;2023-11-21T10:17:29;35.80;61.40
5940;DHT22;2995;-31.998;115.906;2023-11-21T10:20:06;35.60;61.60
5940;DHT22;2995;-31.998;115.906;2023-11-21T10:22:40;35.50;63.00
5940;DHT22;2995;-31.998;115.906;2023-11-21T10:25:11;35.40;62.20
5940;DHT22;2995;-31.998;115.906;2023-11-21T10:27:48;35.40;62.40
5940;DHT22;2995;-31.998;115.906;2023-11-21T10:30:36;35.30;62.40
5940;DHT22;2995;-31.998;115.906;2023-11-21T10:33:08;35.30;62.00
5940;DHT22;2995;-31.998;115.906;2023-11-21T10:35:45;35.20;62.20
5940;DHT22;2995;-31.998;115.906;2023-11-21T10:38:19;35.20;62.10
5940;DHT22;2995;-31.998;115.906;2023-11-21T10:40:52;35.00;62.40
5940;DHT22;2995;-31.998;115.906;2023-11-21T10:43:25;34.90;62.70
5940;DHT22;2995;-31.998;115.906;2023-11-21T10:46:01;34.80;62.10
5940;DHT22;2995;-31.998;115.906;2023-11-21T10:48:33;34.70;62.70
5940;DHT22;2995;-31.998;115.906;2023-11-21T10:51:08;34.70;62.90
5940;DHT22;2995;-31.998;115.906;2023-11-21T10:53:43;34.60;62.90
5940;DHT22;2995;-31.998;115.906;2023-11-21T10:56:15;34.40;63.00
5940;DHT22;2995;-31.998;115.906;2023-11-21T10:58:50;34.30;63.30
5940;DHT22;2995;-31.998;115.906;2023-11-21T11:01:26;34.40;62.50
5940;DHT22;2995;-31.998;115.906;2023-11-21T11:04:00;34.30;63.90
5940;DHT22;2995;-31.998;115.906;2023-11-21T11:06:33;34.20;63.10
5940;DHT22;2995;-31.998;115.906;2023-11-21T11:09:07;34.00;64.00
5940;DHT22;2995;-31.998;115.906;2023-11-21T11:11:41;34.00;65.50
5940;DHT22;2995;-31.998;115.906;2023-11-21T11:14:13;34.00;63.90
5940;DHT22;2995;-31.998;115.906;2023-11-21T11:16:47;33.80;64.80
5940;DHT22;2995;-31.998;115.906;2023-11-21T11:19:18;33.80;65.10
5940;DHT22;2995;-31.998;115.906;2023-11-21T11:21:59;33.70;64.10
5940;DHT22;2995;-31.998;115.906;2023-11-21T11:24:51;33.70;64.10
5940;DHT22;2995;-31.998;115.906;2023-11-21T11:27:30;33.60;64.10
5940;DHT22;2995;-31.998;115.906;2023-11-21T11:30:15;33.50;63.90
5940;DHT22;2995;-31.998;115.906;2023-11-21T11:32:55;33.40;63.60
5940;DHT22;2995;-31.998;115.906;2023-11-21T11:35:37;33.30;64.60
5940;DHT22;2995;-31.998;115.906;2023-11-21T11:38:09;33.30;64.80
5940;DHT22;2995;-31.998;115.906;2023-11-21T11:40:44;33.10;66.20
5940;DHT22;2995;-31.998;115.906;2023-11-21T11:43:26;33.10;65.00
5940;DHT22;2995;-31.998;115.906;2023-11-21T11:45:59;33.10;65.20
5940;DHT22;2995;-31.998;115.906;2023-11-21T11:48:38;33.00;65.00
5940;DHT22;2995;-31.998;115.906;2023-11-21T11:51:11;33.00;65.40
5940;DHT22;2995;-31.998;115.906;2023-11-21T11:53:45;33.00;65.50
5940;DHT22;2995;-31.998;115.906;2023-11-21T11:56:27;32.90;65.40
5940;DHT22;2995;-31.998;115.906;2023-11-21T11:58:59;32.80;67.30
5940;DHT22;2995;-31.998;115.906;2023-11-21T12:01:33;32.70;66.90
5940;DHT22;2995;-31.998;115.906;2023-11-21T12:04:29;32.70;67.40
5940;DHT22;2995;-31.998;115.906;2023-11-21T12:07:06;32.60;68.50
5940;DHT22;2995;-31.998;115.906;2023-11-21T12:09:38;32.50;67.90
5940;DHT22;2995;-31.998;115.906;2023-11-21T12:12:11;32.30;67.70
5940;DHT22;2995;-31.998;115.906;2023-11-21T12:14:42;32.20;67.70
5940;DHT22;2995;-31.998;115.906;2023-11-21T12:17:13;32.30;66.60
5940;DHT22;2995;-31.998;115.906;2023-11-21T12:19:47;32.30;67.70
5940;DHT22;2995;-31.998;115.906;2023-11-21T12:22:20;32.30;67.30
5940;DHT22;2995;-31.998;115.906;2023-11-21T12:24:51;32.30;66.00
5940;DHT22;2995;-31.998;115.906;2023-11-21T12:27:23;32.30;67.50
5940;DHT22;2995;-31.998;115.906;2023-11-21T12:29:54;32.20;67.10
5940;DHT22;2995;-31.998;115.906;2023-11-21T12:32:27;32.10;66.10
5940;DHT22;2995;-31.998;115.906;2023-11-21T12:35:00;32.10;67.30
5940;DHT22;2995;-31.998;115.906;2023-11-21T12:37:34;32.10;66.90
5940;DHT22;2995;-31.998;115.906;2023-11-21T12:40:06;31.90;67.60
5940;DHT22;2995;-31.998;115.906;2023-11-21T12:42:41;31.90;67.40
5940;DHT22;2995;-31.998;115.906;2023-11-21T12:45:20;32.00;66.80
5940;DHT22;2995;-31.998;115.906;2023-11-21T12:47:56;31.90;67.70
5940;DHT22;2995;-31.998;115.906;2023-11-21T12:50:31;31.70;68.20
5940;DHT22;2995;-31.998;115.906;2023-11-21T12:53:03;31.70;66.90
5940;DHT22;2995;-31.998;115.906;2023-11-21T12:55:36;31.70;67.90
5940;DHT22;2995;-31.998;115.906;2023-11-21T12:58:08;31.80;66.30
5940;DHT22;2995;-31.998;115.906;2023-11-21T13:00:44;31.80;66.70
5940;DHT22;2995;-31.998;115.906;2023-11-21T13:03:17;31.70;67.40
5940;DHT22;2995;-31.998;115.906;2023-11-21T13:05:55;31.60;67.30
5940;DHT22;2995;-31.998;115.906;2023-11-21T13:08:27;31.60;67.30
5940;DHT22;2995;-31.998;115.906;2023-11-21T13:10:58;31.60;67.10
5940;DHT22;2995;-31.998;115.906;2023-11-21T13:13:30;31.60;67.90
5940;DHT22;2995;-31.998;115.906;2023-11-21T13:16:02;31.60;67.60
5940;DHT22;2995;-31.998;115.906;2023-11-21T13:18:35;31.60;67.30
5940;DHT22;2995;-31.998;115.906;2023-11-21T13:21:11;31.60;66.80
5940;DHT22;2995;-31.998;115.906;2023-11-21T13:23:43;31.50;67.00
5940;DHT22;2995;-31.998;115.906;2023-11-21T13:26:16;31.50;66.80
5940;DHT22;2995;-31.998;115.906;2023-11-21T13:28:48;31.50;66.50
5940;DHT22;2995;-31.998;115.906;2023-11-21T13:31:20;31.30;67.10
5940;DHT22;2995;-31.998;115.906;2023-11-21T13:33:59;31.50;67.10
5940;DHT22;2995;-31.998;115.906;2023-11-21T13:36:35;31.50;67.10
5940;DHT22;2995;-31.998;115.906;2023-11-21T13:39:09;31.50;67.10
5940;DHT22;2995;-31.998;115.906;2023-11-21T13:41:43;31.40;67.10
5940;DHT22;2995;-31.998;115.906;2023-11-21T13:44:16;31.40;67.70
5940;DHT22;2995;-31.998;115.906;2023-11-21T13:46:54;31.50;67.30
5940;DHT22;2995;-31.998;115.906;2023-11-21T13:49:27;31.30;67.40
5940;DHT22;2995;-31.998;115.906;2023-11-21T13:52:05;31.30;67.30
5940;DHT22;2995;-31.998;115.906;2023-11-21T13:54:39;31.30;67.30
5940;DHT22;2995;-31.998;115.906;2023-11-21T13:57:10;31.30;67.30
5940;DHT22;2995;-31.998;115.906;2023-11-21T13:59:42;31.20;67.50
5940;DHT22;2995;-31.998;115.906;2023-11-21T14:02:13;31.10;67.10
5940;DHT22;2995;-31.998;115.906;2023-11-21T14:04:47;31.30;67.20
5940;DHT22;2995;-31.998;115.906;2023-11-21T14:07:26;31.10;67.20
5940;DHT22;2995;-31.998;115.906;2023-11-21T14:10:03;31.20;67.20
5940;DHT22;2995;-31.998;115.906;2023-11-21T14:12:36;31.10;67.50
5940;DHT22;2995;-31.998;115.906;2023-11-21T14:15:09;31.10;67.20
5940;DHT22;2995;-31.998;115.906;2023-11-21T14:17:45;31.00;68.30
5940;DHT22;2995;-31.998;115.906;2023-11-21T14:20:16;31.00;67.10
5940;DHT22;2995;-31.998;115.906;2023-11-21T14:22:51;30.90;67.70
5940;DHT22;2995;-31.998;115.906;2023-11-21T14:25:22;30.90;67.30
5940;DHT22;2995;-31.998;115.906;2023-11-21T14:27:53;30.90;67.70
5940;DHT22;2995;-31.998;115.906;2023-11-21T14:30:24;30.90;67.50
5940;DHT22;2995;-31.998;115.906;2023-11-21T14:32:57;30.80;67.90
5940;DHT22;2995;-31.998;115.906;2023-11-21T14:35:28;30.80;67.90
5940;DHT22;2995;-31.998;115.906;2023-11-21T14:38:02;30.70;67.60
5940;DHT22;2995;-31.998;115.906;2023-11-21T14:40:34;30.70;67.60
5940;DHT22;2995;-31.998;115.906;2023-11-21T14:43:05;30.80;67.80
5940;DHT22;2995;-31.998;115.906;2023-11-21T14:45:36;30.70;68.20
5940;DHT22;2995;-31.998;115.906;2023-11-21T14:48:08;30.70;68.10
5940;DHT22;2995;-31.998;115.906;2023-11-21T14:50:44;30.70;67.70
5940;DHT22;2995;-31.998;115.906;2023-11-21T14:53:29;30.60;68.00
5940;DHT22;2995;-31.998;115.906;2023-11-21T14:56:11;30.70;67.50
5940;DHT22;2995;-31.998;115.906;2023-11-21T14:58:49;30.60;67.50
5940;DHT22;2995;-31.998;115.906;2023-11-21T15:01:21;30.60;67.70
5940;DHT22;2995;-31.998;115.906;2023-11-21T15:04:03;30.50;68.00
5940;DHT22;2995;-31.998;115.906;2023-11-21T15:06:35;30.40;68.00
5940;DHT22;2995;-31.998;115.906;2023-11-21T15:09:06;30.50;68.00
5940;DHT22;2995;-31.998;115.906;2023-11-21T15:11:53;30.30;68.10
5940;DHT22;2995;-31.998;115.906;2023-11-21T15:14:31;30.30;67.80
5940;DHT22;2995;-31.998;115.906;2023-11-21T15:17:04;30.30;68.10
5940;DHT22;2995;-31.998;115.906;2023-11-21T15:19:35;30.20;68.60
5940;DHT22;2995;-31.998;115.906;2023-11-21T15:22:06;30.20;68.60
5940;DHT22;2995;-31.998;115.906;2023-11-21T15:24:40;30.20;68.40
5940;DHT22;2995;-31.998;115.906;2023-11-21T15:27:14;30.10;68.60
5940;DHT22;2995;-31.998;115.906;2023-11-21T15:29:46;30.00;69.00
5940;DHT22;2995;-31.998;115.906;2023-11-21T15:32:18;30.00;69.60
5940;DHT22;2995;-31.998;115.906;2023-11-21T15:34:50;29.80;70.00
5940;DHT22;2995;-31.998;115.906;2023-11-21T15:37:21;29.80;70.50
5940;DHT22;2995;-31.998;115.906;2023-11-21T15:39:57;29.70;71.20
5940;DHT22;2995;-31.998;115.906;2023-11-21T15:42:28;29.60;71.70
5940;DHT22;2995;-31.998;115.906;2023-11-21T15:45:00;29.50;72.70
5940;DHT22;2995;-31.998;115.906;2023-11-21T15:47:32;29.40;73.30
5940;DHT22;2995;-31.998;115.906;2023-11-21T15:50:04;29.40;73.50